SBCG/CGR METAR and TAF weather

Enter ICAO airport designator
Station Type Date Time Source
SBCG METAR 2019/10/18 11:00 UTC NOAA

SBCG 181100Z 28003KT 9999 FEW045 BKN100 25/18 Q1015


Station Type Date Time Source
SBCG Decoded METAR 2019/10/18 11:00 UTC NOAA

Campo Grande Aeroporto , Brazil (SBCG) 20-28S 054-40W 567M
Oct 18, 2019 - 07:00 AM EDT / 2019.10.18 1100 UTC
Wind: from the W (280 degrees) at 3 MPH (3 KT):0
Visibility: greater than 7 mile(s):0
Sky conditions: mostly cloudy
Temperature: 77 F (25 C)
Dew Point: 64 F (18 C)
Relative Humidity: 65%
Pressure (altimeter): 29.97 in. Hg (1015 hPa)
ob: SBCG 181100Z 28003KT 9999 FEW045 BKN100 25/18 Q1015
cycle: 11

Station Type Date Time Source
SBCG TAF 2019/10/18 12:59 UTC NOAA

TAF SBCG 180900Z 1812/1912 10007KT 9999 FEW045 TX34/1818Z TN23/1908Z
TEMPO 1818/1820 VCTS SCT040 FEW045CB
RMK PDJ

Example: see airport list